CCM32A LFML-LFKB
Flight info
| Callsign | CCM32A |
|---|---|
| Flight time | 0h 39m |
| Altitude | 29000 |
| Route | NASIK P856 RAPED DCT DIVUL P856 NIRDO |
| Aircraft | A320/M-SDE3FGHIRWY/LB1 |
Departure
| Time | 2026-04-29 12:43 |
|---|---|
| Airport | Marseille Provence Airport (LFML) |
Arrival
| Time | 2026-04-29 13:23 |
|---|---|
| Airport | Bastia-Poretta International airport (LFKB) |
| Time | Latitude | Longitude | Altitude | Speed | Heading |
|---|---|---|---|---|---|
| 2026-04-29 12:13 | 43.43884 | 5.22479 | 38 ft | 0 kts | 265° |
| 2026-04-29 12:14 | 43.43883 | 5.22472 | 38 ft | 0 kts | 265° |
| 2026-04-29 12:36 | 43.43886 | 5.22500 | 37 ft | 4 kts | 254° |
| 2026-04-29 12:36 | 43.43902 | 5.22536 | 37 ft | 4 kts | 190° |
| 2026-04-29 12:37 | 43.43911 | 5.22537 | 37 ft | 0 kts | 166° |
| 2026-04-29 12:39 | 43.43888 | 5.22546 | 37 ft | 9 kts | 164° |
| 2026-04-29 12:39 | 43.43833 | 5.22555 | 37 ft | 7 kts | 197° |
| 2026-04-29 12:39 | 43.43773 | 5.22499 | 37 ft | 12 kts | 233° |
| 2026-04-29 12:39 | 43.43746 | 5.22386 | 37 ft | 13 kts | 254° |
| 2026-04-29 12:40 | 43.43737 | 5.22268 | 37 ft | 13 kts | 298° |
| 2026-04-29 12:40 | 43.43710 | 5.22164 | 37 ft | 14 kts | 228° |
| 2026-04-29 12:40 | 43.43626 | 5.22120 | 37 ft | 15 kts | 152° |
| 2026-04-29 12:40 | 43.43531 | 5.22197 | 37 ft | 17 kts | 149° |
| 2026-04-29 12:41 | 43.43420 | 5.22281 | 37 ft | 19 kts | 162° |
| 2026-04-29 12:41 | 43.43304 | 5.22365 | 37 ft | 20 kts | 136° |
| 2026-04-29 12:41 | 43.43206 | 5.22506 | 37 ft | 22 kts | 134° |
| 2026-04-29 12:41 | 43.43095 | 5.22662 | 37 ft | 24 kts | 134° |
| 2026-04-29 12:42 | 43.42975 | 5.22833 | 37 ft | 26 kts | 134° |
| 2026-04-29 12:42 | 43.42869 | 5.22964 | 37 ft | 18 kts | 153° |
| 2026-04-29 12:42 | 43.42775 | 5.22891 | 36 ft | 14 kts | 225° |
| 2026-04-29 12:42 | 43.42778 | 5.22776 | 35 ft | 16 kts | 315° |
| 2026-04-29 12:43 | 43.42945 | 5.22538 | 36 ft | 69 kts | 314° |
| 2026-04-29 12:43 | 43.43441 | 5.21833 | 35 ft | 133 kts | 314° |
| 2026-04-29 12:43 | 43.44198 | 5.20760 | 152 ft | 172 kts | 315° |
| 2026-04-29 12:43 | 43.45056 | 5.19574 | 877 ft | 175 kts | 315° |
| 2026-04-29 12:44 | 43.45918 | 5.18373 | 1584 ft | 181 kts | 314° |
| 2026-04-29 12:44 | 43.46801 | 5.17117 | 2269 ft | 184 kts | 314° |
| 2026-04-29 12:44 | 43.47713 | 5.15887 | 2906 ft | 191 kts | 324° |
| 2026-04-29 12:44 | 43.49035 | 5.15397 | 3271 ft | 213 kts | 8° |
| 2026-04-29 12:45 | 43.50387 | 5.16344 | 3805 ft | 228 kts | 50° |
| 2026-04-29 12:45 | 43.51035 | 5.18321 | 4559 ft | 232 kts | 81° |
| 2026-04-29 12:45 | 43.51310 | 5.20525 | 5411 ft | 234 kts | 83° |
| 2026-04-29 12:45 | 43.51556 | 5.22754 | 6239 ft | 237 kts | 82° |
| 2026-04-29 12:46 | 43.51801 | 5.25018 | 7048 ft | 240 kts | 83° |
| 2026-04-29 12:46 | 43.51819 | 5.27307 | 7729 ft | 249 kts | 98° |
| 2026-04-29 12:46 | 43.51554 | 5.29813 | 8078 ft | 273 kts | 99° |
| 2026-04-29 12:46 | 43.51258 | 5.32465 | 8560 ft | 289 kts | 99° |
| 2026-04-29 12:47 | 43.50948 | 5.35242 | 9300 ft | 295 kts | 99° |
| 2026-04-29 12:47 | 43.50462 | 5.37976 | 10035 ft | 299 kts | 110° |
| 2026-04-29 12:47 | 43.49733 | 5.40753 | 10414 ft | 319 kts | 110° |
| 2026-04-29 12:47 | 43.48950 | 5.43735 | 10631 ft | 340 kts | 110° |
| 2026-04-29 12:48 | 43.48137 | 5.46850 | 11159 ft | 348 kts | 110° |
| 2026-04-29 12:48 | 43.47315 | 5.50019 | 11793 ft | 353 kts | 110° |
| 2026-04-29 12:48 | 43.46486 | 5.53219 | 12413 ft | 357 kts | 110° |
| 2026-04-29 12:48 | 43.45656 | 5.56416 | 12993 ft | 361 kts | 110° |
| 2026-04-29 12:49 | 43.44808 | 5.59681 | 13560 ft | 364 kts | 110° |
| 2026-04-29 12:49 | 43.43947 | 5.62987 | 14100 ft | 368 kts | 110° |
| 2026-04-29 12:49 | 43.43079 | 5.66309 | 14612 ft | 371 kts | 110° |
| 2026-04-29 12:49 | 43.42204 | 5.69665 | 15103 ft | 374 kts | 109° |
| 2026-04-29 12:50 | 43.41564 | 5.73151 | 15567 ft | 378 kts | 98° |
| 2026-04-29 12:50 | 43.41441 | 5.76788 | 16018 ft | 381 kts | 88° |
| 2026-04-29 12:50 | 43.41577 | 5.80441 | 16449 ft | 384 kts | 87° |
| 2026-04-29 12:50 | 43.41705 | 5.84080 | 16860 ft | 387 kts | 88° |
| 2026-04-29 12:51 | 43.41832 | 5.87806 | 17263 ft | 390 kts | 88° |
| 2026-04-29 12:51 | 43.41957 | 5.91548 | 17645 ft | 392 kts | 88° |
| 2026-04-29 12:51 | 43.42079 | 5.95270 | 18011 ft | 395 kts | 88° |
| 2026-04-29 12:51 | 43.42203 | 5.99059 | 18365 ft | 397 kts | 88° |
| 2026-04-29 12:52 | 43.42326 | 6.02868 | 18715 ft | 400 kts | 88° |
| 2026-04-29 12:52 | 43.42450 | 6.06710 | 19042 ft | 402 kts | 88° |
| 2026-04-29 12:52 | 43.42577 | 6.10582 | 19363 ft | 405 kts | 88° |
| 2026-04-29 12:52 | 43.42699 | 6.14417 | 19672 ft | 407 kts | 88° |
| 2026-04-29 12:53 | 43.42819 | 6.18317 | 19969 ft | 409 kts | 88° |
| 2026-04-29 12:53 | 43.42939 | 6.22236 | 20259 ft | 411 kts | 88° |
| 2026-04-29 12:53 | 43.43036 | 6.26187 | 20537 ft | 413 kts | 91° |
| 2026-04-29 12:53 | 43.42784 | 6.30138 | 20800 ft | 415 kts | 97° |
| 2026-04-29 12:54 | 43.42433 | 6.34040 | 21058 ft | 417 kts | 97° |
| 2026-04-29 12:54 | 43.42073 | 6.38058 | 21308 ft | 418 kts | 97° |
| 2026-04-29 12:54 | 43.41719 | 6.42005 | 21543 ft | 420 kts | 97° |
| 2026-04-29 12:54 | 43.41357 | 6.46014 | 21776 ft | 422 kts | 97° |
| 2026-04-29 12:55 | 43.40990 | 6.50047 | 22001 ft | 424 kts | 97° |
| 2026-04-29 12:55 | 43.40624 | 6.54032 | 22214 ft | 425 kts | 97° |
| 2026-04-29 12:55 | 43.40246 | 6.58094 | 22424 ft | 427 kts | 97° |
| 2026-04-29 12:55 | 43.39868 | 6.62161 | 22621 ft | 429 kts | 97° |
| 2026-04-29 12:56 | 43.39494 | 6.66233 | 22810 ft | 430 kts | 97° |
| 2026-04-29 12:56 | 43.39123 | 6.70282 | 22987 ft | 431 kts | 97° |
| 2026-04-29 12:56 | 43.38743 | 6.74399 | 23164 ft | 433 kts | 97° |
| 2026-04-29 12:56 | 43.38357 | 6.78510 | 23326 ft | 434 kts | 97° |
| 2026-04-29 12:57 | 43.37966 | 6.82637 | 23482 ft | 435 kts | 97° |
| 2026-04-29 12:57 | 43.37579 | 6.86722 | 23632 ft | 436 kts | 97° |
| 2026-04-29 12:57 | 43.37186 | 6.90873 | 23776 ft | 438 kts | 97° |
| 2026-04-29 12:57 | 43.36790 | 6.95042 | 23915 ft | 439 kts | 98° |
| 2026-04-29 12:58 | 43.36397 | 6.99158 | 24009 ft | 440 kts | 98° |
| 2026-04-29 12:58 | 43.35998 | 7.03320 | 24007 ft | 436 kts | 98° |
| 2026-04-29 12:58 | 43.35599 | 7.07478 | 24010 ft | 441 kts | 98° |
| 2026-04-29 12:58 | 43.35193 | 7.11673 | 24009 ft | 444 kts | 98° |
| 2026-04-29 12:59 | 43.34786 | 7.15883 | 24009 ft | 445 kts | 98° |
| 2026-04-29 12:59 | 43.34379 | 7.20105 | 24009 ft | 445 kts | 98° |
| 2026-04-29 12:59 | 43.33973 | 7.24272 | 24009 ft | 445 kts | 98° |
| 2026-04-29 12:59 | 43.33559 | 7.28494 | 24009 ft | 445 kts | 98° |
| 2026-04-29 13:00 | 43.33142 | 7.32715 | 24009 ft | 445 kts | 98° |
| 2026-04-29 13:00 | 43.32722 | 7.36931 | 24009 ft | 445 kts | 98° |
| 2026-04-29 13:00 | 43.32301 | 7.41152 | 24010 ft | 445 kts | 98° |
| 2026-04-29 13:00 | 43.31884 | 7.45334 | 24107 ft | 446 kts | 98° |
| 2026-04-29 13:01 | 43.31463 | 7.49556 | 24297 ft | 444 kts | 98° |
| 2026-04-29 13:01 | 43.31044 | 7.53725 | 24755 ft | 437 kts | 98° |
| 2026-04-29 13:01 | 43.30634 | 7.57813 | 24973 ft | 435 kts | 98° |
| 2026-04-29 13:01 | 43.30200 | 7.61931 | 25009 ft | 434 kts | 101° |
| 2026-04-29 13:02 | 43.29486 | 7.65960 | 25010 ft | 434 kts | 105° |
| 2026-04-29 13:02 | 43.28729 | 7.69967 | 25009 ft | 433 kts | 105° |
| 2026-04-29 13:02 | 43.27968 | 7.73980 | 25009 ft | 433 kts | 105° |
| 2026-04-29 13:02 | 43.27217 | 7.77936 | 25009 ft | 433 kts | 105° |
| 2026-04-29 13:03 | 43.26455 | 7.81942 | 25009 ft | 433 kts | 105° |
| 2026-04-29 13:03 | 43.25691 | 7.85939 | 25009 ft | 433 kts | 105° |
| 2026-04-29 13:03 | 43.24926 | 7.89954 | 25009 ft | 433 kts | 105° |
| 2026-04-29 13:03 | 43.24162 | 7.93949 | 25009 ft | 433 kts | 105° |
| 2026-04-29 13:04 | 43.23402 | 7.97919 | 25009 ft | 433 kts | 105° |
| 2026-04-29 13:04 | 43.22636 | 8.01919 | 25009 ft | 433 kts | 105° |
| 2026-04-29 13:04 | 43.21867 | 8.05909 | 25009 ft | 433 kts | 105° |
| 2026-04-29 13:04 | 43.21097 | 8.09906 | 25009 ft | 433 kts | 105° |
| 2026-04-29 13:05 | 43.20322 | 8.13900 | 25009 ft | 433 kts | 105° |
| 2026-04-29 13:05 | 43.19558 | 8.17832 | 25009 ft | 433 kts | 105° |
| 2026-04-29 13:05 | 43.18783 | 8.21838 | 25009 ft | 433 kts | 105° |
| 2026-04-29 13:05 | 43.18007 | 8.25831 | 24891 ft | 429 kts | 105° |
| 2026-04-29 13:06 | 43.17243 | 8.29746 | 24640 ft | 423 kts | 105° |
| 2026-04-29 13:06 | 43.16487 | 8.33620 | 24389 ft | 419 kts | 105° |
| 2026-04-29 13:06 | 43.15742 | 8.37425 | 24142 ft | 417 kts | 105° |
| 2026-04-29 13:06 | 43.14991 | 8.41252 | 23892 ft | 415 kts | 105° |
| 2026-04-29 13:07 | 43.14268 | 8.45071 | 23641 ft | 413 kts | 103° |
| 2026-04-29 13:07 | 43.13654 | 8.48917 | 23201 ft | 412 kts | 102° |
| 2026-04-29 13:07 | 43.13125 | 8.52764 | 22636 ft | 409 kts | 100° |
| 2026-04-29 13:07 | 43.12646 | 8.56543 | 22084 ft | 406 kts | 100° |
| 2026-04-29 13:08 | 43.12168 | 8.60342 | 21529 ft | 403 kts | 100° |
| 2026-04-29 13:08 | 43.11679 | 8.64113 | 20978 ft | 400 kts | 101° |
| 2026-04-29 13:08 | 43.11172 | 8.67851 | 20433 ft | 397 kts | 101° |
| 2026-04-29 13:08 | 43.10659 | 8.71506 | 19898 ft | 394 kts | 101° |
| 2026-04-29 13:09 | 43.10134 | 8.75188 | 19359 ft | 391 kts | 101° |
| 2026-04-29 13:09 | 43.09614 | 8.78833 | 18826 ft | 388 kts | 101° |
| 2026-04-29 13:09 | 43.09098 | 8.82442 | 18297 ft | 385 kts | 101° |
| 2026-04-29 13:09 | 43.08585 | 8.86024 | 17771 ft | 382 kts | 101° |
| 2026-04-29 13:10 | 43.08081 | 8.89543 | 17253 ft | 380 kts | 101° |
| 2026-04-29 13:10 | 43.07574 | 8.93089 | 16735 ft | 377 kts | 101° |
| 2026-04-29 13:10 | 43.07070 | 8.96611 | 16219 ft | 374 kts | 101° |
| 2026-04-29 13:10 | 43.06571 | 9.00094 | 15708 ft | 372 kts | 101° |
| 2026-04-29 13:11 | 43.06077 | 9.03515 | 15206 ft | 370 kts | 101° |
| 2026-04-29 13:11 | 43.05579 | 9.06957 | 14703 ft | 367 kts | 102° |
| 2026-04-29 13:11 | 43.04907 | 9.10321 | 14198 ft | 364 kts | 108° |
| 2026-04-29 13:11 | 43.04129 | 9.13558 | 13694 ft | 359 kts | 108° |
| 2026-04-29 13:12 | 43.03359 | 9.16767 | 13205 ft | 353 kts | 108° |
| 2026-04-29 13:12 | 43.02595 | 9.19950 | 12714 ft | 350 kts | 108° |
| 2026-04-29 13:12 | 43.01837 | 9.23108 | 12228 ft | 348 kts | 108° |
| 2026-04-29 13:12 | 43.01080 | 9.26250 | 11745 ft | 345 kts | 109° |
| 2026-04-29 13:13 | 43.00333 | 9.29345 | 11269 ft | 341 kts | 109° |
| 2026-04-29 13:13 | 42.99600 | 9.32384 | 10800 ft | 338 kts | 109° |
| 2026-04-29 13:13 | 42.98864 | 9.35421 | 10331 ft | 335 kts | 109° |
| 2026-04-29 13:13 | 42.98139 | 9.38411 | 10127 ft | 324 kts | 109° |
| 2026-04-29 13:14 | 42.97440 | 9.41289 | 9998 ft | 311 kts | 109° |
| 2026-04-29 13:14 | 42.96774 | 9.44022 | 9769 ft | 303 kts | 109° |
| 2026-04-29 13:14 | 42.96112 | 9.46733 | 9275 ft | 299 kts | 109° |
| 2026-04-29 13:14 | 42.95455 | 9.49430 | 8685 ft | 298 kts | 109° |
| 2026-04-29 13:15 | 42.94807 | 9.52082 | 8118 ft | 295 kts | 109° |
| 2026-04-29 13:15 | 42.94162 | 9.54715 | 7866 ft | 280 kts | 109° |
| 2026-04-29 13:15 | 42.93483 | 9.57109 | 7640 ft | 261 kts | 122° |
| 2026-04-29 13:15 | 42.92257 | 9.58782 | 7356 ft | 248 kts | 152° |
| 2026-04-29 13:16 | 42.90597 | 9.59438 | 7038 ft | 252 kts | 181° |
| 2026-04-29 13:16 | 42.88884 | 9.59012 | 6603 ft | 252 kts | 195° |
| 2026-04-29 13:16 | 42.87201 | 9.58390 | 6297 ft | 249 kts | 195° |
| 2026-04-29 13:16 | 42.85551 | 9.57775 | 5765 ft | 247 kts | 196° |
| 2026-04-29 13:17 | 42.83961 | 9.56955 | 5293 ft | 241 kts | 207° |
| 2026-04-29 13:17 | 42.82458 | 9.55926 | 4907 ft | 241 kts | 207° |
| 2026-04-29 13:17 | 42.80947 | 9.54905 | 4504 ft | 239 kts | 207° |
| 2026-04-29 13:17 | 42.79480 | 9.53918 | 4129 ft | 237 kts | 206° |
| 2026-04-29 13:18 | 42.77991 | 9.52918 | 3742 ft | 237 kts | 206° |
| 2026-04-29 13:18 | 42.76521 | 9.51930 | 3359 ft | 234 kts | 206° |
| 2026-04-29 13:18 | 42.75102 | 9.50979 | 3075 ft | 226 kts | 206° |
| 2026-04-29 13:18 | 42.73727 | 9.50060 | 2937 ft | 215 kts | 206° |
| 2026-04-29 13:19 | 42.72402 | 9.49175 | 2764 ft | 208 kts | 206° |
| 2026-04-29 13:19 | 42.71129 | 9.48327 | 2691 ft | 201 kts | 206° |
| 2026-04-29 13:19 | 42.69916 | 9.47514 | 2567 ft | 184 kts | 207° |
| 2026-04-29 13:19 | 42.68823 | 9.46818 | 2467 ft | 162 kts | 199° |
| 2026-04-29 13:20 | 42.67773 | 9.46564 | 2374 ft | 149 kts | 182° |
| 2026-04-29 13:20 | 42.66766 | 9.46628 | 2144 ft | 143 kts | 178° |
| 2026-04-29 13:20 | 42.65784 | 9.46702 | 1930 ft | 140 kts | 178° |
| 2026-04-29 13:20 | 42.64814 | 9.46773 | 1725 ft | 139 kts | 179° |
| 2026-04-29 13:21 | 42.63863 | 9.46814 | 1564 ft | 138 kts | 179° |
| 2026-04-29 13:21 | 42.62904 | 9.46836 | 1389 ft | 138 kts | 180° |
| 2026-04-29 13:21 | 42.61946 | 9.46843 | 1181 ft | 137 kts | 180° |
| 2026-04-29 13:21 | 42.60992 | 9.46902 | 926 ft | 137 kts | 178° |
| 2026-04-29 13:22 | 42.60047 | 9.46987 | 763 ft | 136 kts | 175° |
| 2026-04-29 13:22 | 42.59103 | 9.47110 | 597 ft | 136 kts | 175° |
| 2026-04-29 13:22 | 42.58164 | 9.47256 | 422 ft | 136 kts | 173° |
| 2026-04-29 13:22 | 42.57245 | 9.47538 | 235 ft | 135 kts | 164° |
| 2026-04-29 13:23 | 42.56347 | 9.47920 | 66 ft | 135 kts | 163° |
| 2026-04-29 13:23 | 42.55539 | 9.48259 | 34 ft | 95 kts | 163° |
| 2026-04-29 13:23 | 42.55134 | 9.48429 | 36 ft | 38 kts | 162° |
| 2026-04-29 13:23 | 42.54995 | 9.48443 | 36 ft | 16 kts | 238° |
| 2026-04-29 13:24 | 42.54961 | 9.48311 | 35 ft | 6 kts | 252° |
| 2026-04-29 13:24 | 42.54961 | 9.48309 | 35 ft | 0 kts | 252° |
| 2026-04-29 13:24 | 42.54959 | 9.48304 | 35 ft | 4 kts | 252° |
| 2026-04-29 13:24 | 42.54948 | 9.48260 | 35 ft | 4 kts | 239° |
| 2026-04-29 13:25 | 42.54924 | 9.48245 | 35 ft | 3 kts | 190° |
| 2026-04-29 13:25 | 42.54858 | 9.48267 | 35 ft | 5 kts | 163° |
| 2026-04-29 13:25 | 42.54823 | 9.48281 | 35 ft | 5 kts | 163° |
| 2026-04-29 13:26 | 42.54780 | 9.48299 | 35 ft | 11 kts | 163° |
| 2026-04-29 13:26 | 42.54698 | 9.48334 | 35 ft | 13 kts | 163° |
| 2026-04-29 13:26 | 42.54618 | 9.48361 | 35 ft | 9 kts | 190° |
| 2026-04-29 13:26 | 42.54615 | 9.48311 | 35 ft | 5 kts | 283° |
| 2026-04-29 13:27 | 42.54622 | 9.48270 | 35 ft | 4 kts | 283° |
| 2026-04-29 13:27 | 42.54625 | 9.48250 | 35 ft | 1 kts | 283° |